Time;durP1;ratioP1;P1;durP2;ratioP2;P2;SDS_P1;SDS_P2;PMS_P1;PMS_P2;Temp;Humidity;BMP_temperature;BMP_pressure;BME280_temperature;BME280_humidity;BME280_pressure;Samples;Min_cycle;Max_cycle;Signal;HPM_P1;HPM_P2
2022/05/09 00:00:29;;;;;;;45.67;42.38;;;;;;;7.20;100.00;101629.78;5056227;28;20563;-84
2022/05/09 00:02:56;;;;;;;42.08;39.08;;;;;;;7.04;100.00;101627.91;5055790;28;20041;-84
2022/05/09 00:05:26;;;;;;;43.28;40.20;;;;;;;6.69;100.00;101626.28;5046361;28;20468;-81
2022/05/09 00:07:55;;;;;;;41.92;38.53;;;;;;;7.14;100.00;101625.97;5065677;28;20068;-83
2022/05/09 00:10:25;;;;;;;42.65;39.75;;;;;;;7.03;100.00;101613.06;5061070;28;20292;-83
2022/05/09 00:12:52;;;;;;;39.47;36.45;;;;;;;6.70;100.00;101622.69;5063109;28;20049;-83
2022/05/09 00:15:20;;;;;;;42.30;39.35;;;;;;;6.85;100.00;101624.56;5066447;28;20049;-83
2022/05/09 00:17:47;;;;;;;41.33;38.03;;;;;;;7.08;100.00;101634.53;5047270;28;20107;-82
2022/05/09 00:20:15;;;;;;;40.50;37.20;;;;;;;7.04;100.00;101634.03;5058986;28;20060;-84
2022/05/09 00:22:49;;;;;;;38.05;35.30;;;;;;;6.89;100.00;101633.78;5059458;28;20053;-83
2022/05/09 00:25:18;;;;;;;39.72;36.97;;;;;;;6.95;100.00;101629.69;5054050;28;20053;-82
2022/05/09 00:27:45;;;;;;;36.63;33.92;;;;;;;6.57;100.00;101637.13;5062789;28;20131;-82
2022/05/09 00:30:13;;;;;;;39.17;36.28;;;;;;;6.88;100.00;101629.50;5062680;28;20057;-83
2022/05/09 00:32:40;;;;;;;38.80;35.63;;;;;;;6.40;100.00;101633.56;5049421;28;20045;-82
2022/05/09 00:35:09;;;;;;;37.20;33.95;;;;;;;6.30;100.00;101630.22;5059824;28;20453;-83
2022/05/09 00:37:36;;;;;;;40.53;37.22;;;;;;;6.65;100.00;101639.78;5067463;28;20484;-82
2022/05/09 00:40:06;;;;;;;42.78;39.38;;;;;;;6.66;100.00;101632.72;5060380;28;20045;-84
2022/05/09 00:42:35;;;;;;;42.45;39.38;;;;;;;6.76;100.00;101638.72;5066346;28;20424;-83
2022/05/09 00:45:06;;;;;;;36.95;34.20;;;;;;;6.68;100.00;101643.94;5054687;28;20041;-85
2022/05/09 00:47:32;;;;;;;40.20;37.20;;;;;;;6.37;100.00;101633.88;5059836;28;20057;-83
2022/05/09 00:50:02;;;;;;;42.60;39.42;;;;;;;6.51;100.00;101629.03;5055575;28;20055;-84
2022/05/09 00:52:33;;;;;;;40.13;37.17;;;;;;;6.48;100.00;101631.97;5067256;28;20374;-82
2022/05/09 00:55:06;;;;;;;39.03;36.15;;;;;;;6.48;100.00;101630.16;5059149;28;20094;-84
2022/05/09 00:57:38;;;;;;;44.03;40.92;;;;;;;6.53;100.00;101634.94;5048328;28;20136;-82
2022/05/09 01:00:09;;;;;;;41.60;38.60;;;;;;;6.80;100.00;101637.38;5061565;28;20117;-83
2022/05/09 01:02:38;;;;;;;51.03;47.47;;;;;;;6.38;100.00;101635.56;5048545;28;20106;-82
2022/05/09 01:05:07;;;;;;;46.85;43.40;;;;;;;6.68;100.00;101633.38;5059560;28;20534;-85
2022/05/09 01:07:50;;;;;;;47.20;43.95;;;;;;;5.99;100.00;101629.00;5052737;28;20060;-84
2022/05/09 01:10:28;;;;;;;;;;;;;;;6.11;100.00;101627.75;5045273;28;20040;-83
2022/05/09 01:13:12;;;;;;;45.60;42.38;;;;;;;6.35;100.00;101629.72;5076141;28;19974;-81
2022/05/09 01:15:47;;;;;;;41.58;38.88;;;;;;;5.84;100.00;101632.16;5036995;28;20099;-85
2022/05/09 01:18:25;;;;;;;46.65;43.25;;;;;;;5.84;100.00;101623.41;5040827;28;20381;-82
2022/05/09 01:21:03;;;;;;;43.03;39.97;;;;;;;5.64;100.00;101617.50;5056921;28;20472;-83
2022/05/09 01:23:36;;;;;;;44.80;41.50;;;;;;;5.32;100.00;101621.47;5056581;28;20044;-81
2022/05/09 01:26:27;;;;;;;40.92;37.90;;;;;;;5.58;100.00;101624.19;5057305;28;20106;-84
2022/05/09 01:29:11;;;;;;;42.85;39.72;;;;;;;5.45;100.00;101624.56;5044649;28;20120;-82
2022/05/09 01:31:59;;;;;;;42.90;39.70;;;;;;;5.82;100.00;101626.22;5041675;28;20374;-83
2022/05/09 01:34:37;;;;;;;43.78;40.78;;;;;;;5.79;100.00;101626.53;5074462;28;20106;-83
2022/05/09 01:37:22;;;;;;;40.25;37.25;;;;;;;6.27;100.00;101622.63;5057093;28;20617;-84
2022/05/09 01:39:58;;;;;;;42.75;39.75;;;;;;;6.09;100.00;101620.03;5057255;28;20118;-82
2022/05/09 01:42:36;;;;;;;40.70;37.70;;;;;;;5.86;100.00;101619.66;5055826;28;20060;-82
2022/05/09 01:45:33;;;;;;;39.47;36.55;;;;;;;5.94;100.00;101621.56;5063603;28;20464;-82
2022/05/09 01:50:54;;;;;;;39.22;36.33;;;;;;;5.72;100.00;101623.66;5043429;28;20504;-84
2022/05/09 01:53:35;;;;;;;41.33;38.33;;;;;;;5.73;100.00;101624.50;5052254;28;20118;-84
2022/05/09 01:56:05;;;;;;;36.42;33.92;;;;;;;5.77;100.00;101631.09;5059521;28;20052;-84
2022/05/09 01:58:36;;;;;;;40.92;37.80;;;;;;;5.73;100.00;101622.69;5071565;28;20052;-84
2022/05/09 02:01:03;;;;;;;40.60;37.80;;;;;;;5.79;100.00;101637.06;5175955;22;20081;-85
2022/05/09 02:03:34;;;;;;;43.58;40.35;;;;;;;5.67;100.00;101641.72;5088600;28;20051;-84
2022/05/09 02:06:14;;;;;;;40.13;37.28;;;;;;;5.48;100.00;101639.25;5097004;28;20102;-84
2022/05/09 02:08:49;;;;;;;45.33;41.80;;;;;;;5.87;100.00;101633.66;5097599;28;20394;-84
2022/05/09 02:11:21;;;;;;;41.70;38.67;;;;;;;5.27;100.00;101648.25;5097281;28;20051;-83
2022/05/09 02:13:59;;;;;;;39.20;36.20;;;;;;;5.24;100.00;101653.00;5087686;28;20060;-83
2022/05/09 02:16:28;;;;;;;43.80;40.47;;;;;;;5.43;100.00;101654.69;5094771;28;20044;-84
2022/05/09 02:18:57;;;;;;;42.85;39.50;;;;;;;5.38;100.00;101654.28;5097562;28;20040;-85
2022/05/09 02:21:26;;;;;;;49.50;46.03;;;;;;;5.36;100.00;101664.16;5088632;28;20106;-83
2022/05/09 02:24:04;;;;;;;43.95;40.13;;;;;;;5.28;100.00;101663.09;5093519;28;20533;-83
2022/05/09 02:26:34;;;;;;;44.45;40.85;;;;;;;5.36;100.00;101662.34;5095343;28;20052;-83
2022/05/09 02:29:04;;;;;;;48.90;44.97;;;;;;;5.24;100.00;101667.00;5082131;28;20055;-82
2022/05/09 02:31:38;;;;;;;53.13;48.92;;;;;;;5.06;100.00;101671.41;5086672;28;20109;-83
2022/05/09 02:34:19;;;;;;;45.33;41.53;;;;;;;5.04;100.00;101675.97;5087044;28;20052;-83
2022/05/09 02:36:46;;;;;;;44.00;40.33;;;;;;;5.22;100.00;101674.22;5096210;28;20458;-83
2022/05/09 02:39:36;;;;;;;43.20;39.00;;;;;;;4.45;100.00;101672.75;5098522;28;20052;-85
2022/05/09 02:42:15;;;;;;;48.58;44.47;;;;;;;5.04;100.00;101676.81;5087820;28;20120;-85
2022/05/09 02:45:03;;;;;;;52.65;47.95;;;;;;;5.08;100.00;101671.25;5089573;28;20369;-85
2022/05/09 02:47:41;;;;;;;44.38;40.55;;;;;;;5.00;100.00;101672.81;5085412;28;20075;-83
2022/05/09 02:50:14;;;;;;;50.10;45.83;;;;;;;5.01;100.00;101673.63;5081035;28;20048;-83
2022/05/09 02:52:50;;;;;;;43.28;39.30;;;;;;;5.24;100.00;101674.09;5084976;28;20059;-86
2022/05/09 02:55:20;;;;;;;49.05;44.65;;;;;;;5.26;100.00;101677.38;5097586;28;20047;-83
2022/05/09 02:57:49;;;;;;;46.85;42.95;;;;;;;5.17;100.00;101675.63;5093402;28;20118;-83
2022/05/09 03:00:19;;;;;;;45.38;41.88;;;;;;;5.24;100.00;101674.91;5094258;28;20396;-85
2022/05/09 03:04:38;;;;;;;44.22;40.05;;;;;;;5.23;100.00;101680.31;5094332;28;20403;-85
2022/05/09 03:05:33;;;;;;;46.45;41.88;;;;;;;4.98;100.00;101680.00;5095703;28;20466;-86
2022/05/09 03:08:00;;;;;;;45.25;40.67;;;;;;;5.12;100.00;101683.16;5088301;28;20076;-84
2022/05/09 03:10:31;;;;;;;45.63;41.03;;;;;;;5.07;100.00;101686.22;5094744;28;20040;-85
2022/05/09 03:13:02;;;;;;;42.83;39.10;;;;;;;5.19;100.00;101682.41;5093115;28;20051;-83
2022/05/09 03:15:30;;;;;;;41.83;37.80;;;;;;;5.10;100.00;101683.28;5093139;28;20056;-85
2022/05/09 03:17:58;;;;;;;41.15;37.25;;;;;;;5.07;100.00;101685.38;5095133;28;20036;-84
2022/05/09 03:20:25;;;;;;;45.00;40.40;;;;;;;5.04;100.00;101686.50;5095263;28;20056;-83
2022/05/09 03:22:52;;;;;;;46.38;41.83;;;;;;;5.15;100.00;101686.31;5094932;28;20076;-83
2022/05/09 03:25:19;;;;;;;43.17;39.30;;;;;;;5.49;100.00;101696.25;5095464;28;20365;-82
2022/05/09 03:27:46;;;;;;;44.38;40.10;;;;;;;5.35;100.00;101697.56;5095439;28;20075;-84
2022/05/09 03:30:16;;;;;;;51.70;46.88;;;;;;;5.48;100.00;101691.97;5092562;28;20048;-85
2022/05/09 03:32:44;;;;;;;48.33;43.33;;;;;;;5.56;100.00;101699.09;5095312;28;20468;-85
2022/05/09 03:35:12;;;;;;;46.38;41.67;;;;;;;5.82;100.00;101697.41;5080674;28;20075;-84
2022/05/09 03:37:52;;;;;;;46.08;41.78;;;;;;;5.81;100.00;101706.28;5096506;28;20073;-83
2022/05/09 03:40:21;;;;;;;48.58;43.90;;;;;;;5.93;100.00;101697.22;5092386;28;20149;-84
2022/05/09 03:42:56;;;;;;;51.20;46.35;;;;;;;6.17;100.00;101701.00;5098910;28;20048;-85
2022/05/09 03:45:27;;;;;;;49.30;45.40;;;;;;;6.15;100.00;101701.19;5098157;28;20070;-83
2022/05/09 03:48:06;;;;;;;48.92;44.88;;;;;;;6.14;100.00;101703.94;5096818;28;20182;-84
2022/05/09 03:53:57;;;;;;;51.97;47.38;;;;;;;6.43;100.00;101706.31;5089557;28;20042;-84
2022/05/09 03:56:30;;;;;;;49.78;45.30;;;;;;;6.25;100.00;101703.72;5090193;28;20465;-84
2022/05/09 03:59:14;;;;;;;43.75;40.05;;;;;;;6.74;100.00;101708.50;5096035;28;20052;-84
2022/05/09 04:01:44;;;;;;;47.67;43.45;;;;;;;6.85;100.00;101714.34;5095825;28;20109;-87
2022/05/09 04:04:27;;;;;;;56.45;52.00;;;;;;;6.98;100.00;101711.25;5096071;28;20079;-83
2022/05/09 04:07:02;;;;;;;56.53;51.38;;;;;;;7.06;100.00;101716.59;5082378;28;20049;-85
2022/05/09 04:09:54;;;;;;;61.33;55.22;;;;;;;7.17;100.00;101712.00;5077323;28;20135;-84
2022/05/09 04:12:44;;;;;;;58.72;53.58;;;;;;;7.59;100.00;101714.59;5084003;28;20137;-85
2022/05/09 04:17:58;;;;;;;53.50;49.30;;;;;;;7.75;100.00;101719.94;5096221;28;20489;-85
2022/05/09 04:20:29;;;;;;;47.40;43.20;;;;;;;7.97;100.00;101717.66;5076188;28;20071;-83
2022/05/09 04:22:56;;;;;;;46.70;41.92;;;;;;;7.92;100.00;101717.31;5096604;28;20061;-85
2022/05/09 04:25:23;;;;;;;53.53;49.05;;;;;;;8.40;100.00;101718.34;5090982;28;20239;-84
2022/05/09 04:27:50;;;;;;;32.40;30.30;;;;;;;8.37;100.00;101714.16;5085240;28;20092;-84
2022/05/09 04:30:29;;;;;;;32.00;29.67;;;;;;;8.59;100.00;101707.38;5085845;28;20424;-83
2022/05/09 04:33:00;;;;;;;34.10;31.73;;;;;;;8.86;100.00;101708.78;5077606;28;20577;-83
2022/05/09 04:35:46;;;;;;;35.20;32.80;;;;;;;9.09;100.00;101714.19;5081047;28;20071;-85
2022/05/09 04:38:43;;;;;;;32.05;29.75;;;;;;;8.98;100.00;101711.09;5096248;28;20476;-85
2022/05/09 04:41:33;;;;;;;30.67;28.33;;;;;;;9.12;100.00;101719.16;5094816;28;20052;-86
2022/05/09 04:44:05;;;;;;;30.58;28.70;;;;;;;9.15;100.00;101721.47;5091777;28;20397;-85
2022/05/09 04:46:32;;;;;;;31.20;29.15;;;;;;;9.18;100.00;101718.47;5086600;28;20122;-84
2022/05/09 04:49:06;;;;;;;31.38;29.27;;;;;;;9.38;100.00;101729.50;5091799;28;20101;-87
2022/05/09 04:51:35;;;;;;;29.77;27.92;;;;;;;9.44;100.00;101730.63;5083708;28;20045;-87
2022/05/09 04:54:07;;;;;;;29.25;27.25;;;;;;;9.71;100.00;101729.28;5088477;28;20052;-84
2022/05/09 04:56:42;;;;;;;30.00;27.98;;;;;;;9.95;100.00;101727.47;5087024;28;20048;-85
2022/05/09 04:59:11;;;;;;;31.15;28.92;;;;;;;10.06;100.00;101737.69;5078899;28;20055;-86
2022/05/09 05:01:38;;;;;;;29.92;28.00;;;;;;;10.26;100.00;101732.72;5079908;28;20048;-86
2022/05/09 05:04:10;;;;;;;30.13;28.00;;;;;;;10.65;100.00;101731.72;5095911;28;20048;-85
2022/05/09 05:06:53;;;;;;;30.20;28.08;;;;;;;10.69;100.00;101733.84;5093525;28;20044;-87
2022/05/09 05:09:30;;;;;;;;;;;;;;;10.80;100.00;101735.19;5094080;28;20113;-85
2022/05/09 05:12:06;;;;;;;30.63;28.52;;;;;;;10.81;100.00;101736.06;5090978;28;19966;-86
2022/05/09 05:14:37;;;;;;;30.98;29.23;;;;;;;11.04;100.00;101736.78;5093472;28;20074;-84
2022/05/09 05:17:20;;;;;;;31.90;29.95;;;;;;;11.10;100.00;101735.22;5096052;28;20051;-85
2022/05/09 05:19:50;;;;;;;30.30;28.23;;;;;;;11.29;100.00;101734.66;5093731;28;20039;-85
2022/05/09 05:22:37;;;;;;;30.25;28.55;;;;;;;11.21;100.00;101735.56;5093587;28;20051;-87
2022/05/09 05:25:12;;;;;;;30.35;28.33;;;;;;;11.49;100.00;101734.88;5090994;28;20106;-85
2022/05/09 05:27:39;;;;;;;29.80;27.90;;;;;;;11.70;100.00;101742.06;5090961;28;20101;-84
2022/05/09 05:30:20;;;;;;;31.80;29.80;;;;;;;11.62;100.00;101740.38;5088181;28;20044;-84
2022/05/09 05:32:52;;;;;;;30.70;28.83;;;;;;;11.95;100.00;101745.22;5078228;28;20052;-87
2022/05/09 05:35:27;;;;;;;31.02;28.55;;;;;;;12.30;100.00;101737.34;5091198;28;20052;-85
2022/05/09 05:37:55;;;;;;;32.03;30.10;;;;;;;12.27;100.00;101725.25;5082318;28;20062;-85
2022/05/09 05:40:30;;;;;;;30.08;28.10;;;;;;;12.25;100.00;101737.09;5093239;28;20048;-84
2022/05/09 05:42:57;;;;;;;29.25;27.63;;;;;;;12.32;100.00;101746.00;5091210;28;20044;-86
2022/05/09 05:45:35;;;;;;;28.65;26.95;;;;;;;12.44;100.00;101738.31;5094818;28;20044;-87
2022/05/09 05:48:35;;;;;;;28.85;27.00;;;;;;;12.74;100.00;101739.75;5090399;28;20044;-85
2022/05/09 05:51:14;;;;;;;30.33;28.65;;;;;;;12.56;100.00;101742.91;5086368;28;20114;-84
2022/05/09 05:53:58;;;;;;;33.17;31.38;;;;;;;13.05;100.00;101743.81;5080475;28;20041;-86
2022/05/09 05:56:45;;;;;;;42.72;40.63;;;;;;;13.10;100.00;101749.38;5088273;28;20083;-85
2022/05/09 05:59:35;;;;;;;35.35;33.38;;;;;;;13.03;100.00;101745.84;5089335;28;20047;-84
2022/05/09 06:02:02;;;;;;;35.47;33.28;;;;;;;13.04;100.00;101750.16;5092205;28;20066;-85
2022/05/09 06:04:37;;;;;;;34.70;32.72;;;;;;;13.34;100.00;101758.75;5094981;28;20464;-85
2022/05/09 06:07:13;;;;;;;29.42;27.58;;;;;;;13.42;100.00;101757.75;5091932;28;20040;-84
2022/05/09 06:09:47;;;;;;;28.52;26.65;;;;;;;13.71;100.00;101757.47;5095464;28;20055;-84
2022/05/09 06:12:23;;;;;;;27.15;25.45;;;;;;;13.89;100.00;101756.06;5096471;28;20106;-85
2022/05/09 06:15:24;;;;;;;27.83;25.95;;;;;;;14.14;100.00;101756.31;5085260;28;20055;-84
2022/05/09 06:17:40;;;;;;;28.88;26.65;;;;;;;13.99;100.00;101756.50;5085512;28;20052;-83
2022/05/09 06:20:11;;;;;;;29.15;27.45;;;;;;;14.05;100.00;101754.84;5082658;28;20063;-84
2022/05/09 06:22:40;;;;;;;27.33;25.77;;;;;;;14.36;100.00;101749.72;5084969;28;20048;-84
2022/05/09 06:25:10;;;;;;;29.27;27.40;;;;;;;14.53;100.00;101739.47;5085160;28;20048;-84
2022/05/09 06:27:49;;;;;;;28.85;26.92;;;;;;;14.64;100.00;101754.06;5085165;28;20044;-84
2022/05/09 06:30:20;;;;;;;29.30;27.70;;;;;;;14.72;100.00;101751.16;5082358;28;20056;-86
2022/05/09 06:33:20;;;;;;;28.33;26.65;;;;;;;14.87;100.00;101748.25;5093349;28;20051;-84
2022/05/09 06:35:52;;;;;;;29.40;27.63;;;;;;;14.74;100.00;101759.00;5088369;28;20048;-83
2022/05/09 06:38:23;;;;;;;;;;;;;;;14.97;100.00;101754.00;5085555;28;20056;-84
2022/05/09 06:40:54;;;;;;;29.48;27.70;;;;;;;14.93;100.00;101759.97;5086511;28;20336;-87
2022/05/09 06:43:22;;;;;;;29.02;27.35;;;;;;;15.18;100.00;101760.09;5092241;28;20118;-86
2022/05/09 06:45:57;;;;;;;28.02;26.45;;;;;;;14.94;100.00;101757.09;5092280;28;20486;-85
2022/05/09 06:48:29;;;;;;;27.58;25.90;;;;;;;14.88;100.00;101765.94;5091742;28;20056;-85
2022/05/09 06:50:59;;;;;;;30.02;27.98;;;;;;;15.45;100.00;101760.84;5086856;28;20044;-86
2022/05/09 06:53:40;;;;;;;30.58;28.55;;;;;;;15.71;100.00;101763.41;5087756;28;20048;-86
2022/05/09 06:56:27;;;;;;;29.90;28.02;;;;;;;15.92;100.00;101758.78;5091151;28;20059;-87
2022/05/09 07:02:15;;;;;;;30.77;29.15;;;;;;;16.75;100.00;101749.63;5085206;28;20051;-85
2022/05/09 07:04:42;;;;;;;29.92;27.75;;;;;;;16.41;100.00;101757.97;5085017;28;20041;-83
2022/05/09 07:07:10;;;;;;;31.48;29.58;;;;;;;16.48;100.00;101749.88;5087967;28;20052;-86
2022/05/09 07:09:51;;;;;;;29.85;27.90;;;;;;;16.91;100.00;101757.13;5086816;28;20052;-83
2022/05/09 07:12:26;;;;;;;29.98;28.17;;;;;;;17.20;100.00;101750.19;5091432;28;20109;-85
2022/05/09 07:14:53;;;;;;;29.13;27.42;;;;;;;17.00;100.00;101752.28;5090892;28;20541;-85
2022/05/09 07:17:20;;;;;;;30.42;28.35;;;;;;;17.69;100.00;101756.38;5091703;28;20041;-85
2022/05/09 07:19:51;;;;;;;30.70;28.95;;;;;;;16.88;100.00;101749.50;5084686;28;20148;-86
2022/05/09 07:22:29;;;;;;;30.77;28.40;;;;;;;17.02;100.00;101742.97;5084840;28;20127;-87
2022/05/09 07:24:58;;;;;;;32.05;30.00;;;;;;;17.38;100.00;101760.91;5086579;28;20113;-87
2022/05/09 07:27:25;;;;;;;33.67;31.42;;;;;;;17.54;100.00;101750.59;5089743;28;20051;-84
2022/05/09 07:29:57;;;;;;;31.55;29.85;;;;;;;18.27;97.86;101750.34;5083358;28;20469;-87
2022/05/09 07:32:33;;;;;;;31.88;30.10;;;;;;;18.31;73.54;101754.22;5088098;28;20476;-87
2022/05/09 07:35:00;;;;;;;30.75;28.92;;;;;;;18.64;84.02;101746.63;5085365;28;20052;-87
2022/05/09 07:37:48;;;;;;;31.23;29.27;;;;;;;18.68;72.34;101751.31;5089466;28;20052;-86
2022/05/09 07:40:20;;;;;;;31.33;29.23;;;;;;;18.66;75.63;101760.66;5076530;28;20129;-85
2022/05/09 07:42:58;;;;;;;30.25;28.45;;;;;;;18.77;67.81;101755.31;5079898;28;20044;-85
2022/05/09 07:49:13;;;;;;;32.80;30.88;;;;;;;18.94;74.71;101749.19;5094041;28;20059;-86
2022/05/09 07:51:47;;;;;;;31.25;29.02;;;;;;;18.93;75.41;101748.38;5091840;28;20102;-84
2022/05/09 07:54:20;;;;;;;32.05;29.67;;;;;;;19.22;73.33;101743.88;5091223;28;20051;-84
2022/05/09 07:56:50;;;;;;;31.65;29.63;;;;;;;19.37;74.65;101747.94;5086637;28;20078;-84
2022/05/09 07:59:23;;;;;;;32.60;30.35;;;;;;;18.99;73.45;101757.38;5095012;28;20048;-84
2022/05/09 08:01:52;;;;;;;30.88;28.88;;;;;;;19.03;65.45;101750.47;5083536;28;20145;-86
2022/05/09 08:04:25;;;;;;;32.10;30.17;;;;;;;19.25;63.69;101745.28;5082835;28;20048;-85
2022/05/09 08:07:13;;;;;;;30.92;29.13;;;;;;;18.72;64.16;101747.09;5093751;28;20073;-87
2022/05/09 08:09:40;;;;;;;31.58;29.80;;;;;;;19.17;66.44;101745.66;5094848;28;20450;-84
2022/05/09 08:12:29;;;;;;;31.88;29.80;;;;;;;19.04;70.00;101752.13;5094824;28;20044;-85
2022/05/09 08:14:57;;;;;;;32.28;30.27;;;;;;;20.04;69.32;101752.69;5080314;28;20053;-84
2022/05/09 08:17:32;;;;;;;32.13;30.25;;;;;;;19.87;67.45;101742.69;5096314;28;20056;-86
2022/05/09 08:20:06;;;;;;;31.27;29.50;;;;;;;20.28;65.71;101751.47;5079195;28;20123;-85
2022/05/09 08:22:46;;;;;;;31.10;29.20;;;;;;;20.00;61.51;101749.66;5085835;28;20105;-87
2022/05/09 08:25:14;;;;;;;31.65;30.05;;;;;;;20.16;63.98;101752.63;5081764;28;20055;-85
2022/05/09 08:27:44;;;;;;;31.77;30.08;;;;;;;19.40;67.99;101753.66;5089184;28;20052;-84
2022/05/09 08:30:14;;;;;;;32.28;30.55;;;;;;;20.20;64.04;101751.88;5083849;28;20547;-84
